SOHO CELIAS Proton Monitor
Solar Wind Parameters for Carrington Rotation 2092 (hour averages)


Listed Parameters:

Measurement time (Year, Month, Day of Month, Day of Year, Hour, Minute, Second)
Proton speed [km/sec]
Proton density [protons per cubic centimeter]
Most probable proton thermal speed [km/sec]
Arrival direction [degrees from north-south, with + meaning FROM the south).
(SPEED=-1 means NOT AVAILABLE)

SOHO spacecraft coordinates: based on SOHO PRE orbit files
GSE X, Y, Z [Earth Radii] 1 RE == 6378 km
Heliocentric Range [106 km],
Heliographic Latitude and Longitude [deg].

FORMAT=(1X,I2,1X,I3,1X,I2,1X,I2,1X,I2,F7.1,3F7.2,3X,3F7.1,F7.1,F7.2,F8.2)



                              CELIAS/MTOF/PM DATA                      SOHO ORBIT DATA              
 InSitu_Start__Time       [km/s]  [cm-3] [km/s]  [deg]      [Re]   [Re]   [Re]  [Mkm]  [deg]  [deg]
 YY MON DY DOY:HH:MM:SS   SPEED     Np     Vth    N/S      GSE_X  GSE_Y  GSE_Z  RANGE  HGLAT  HGLONG
 10 JAN  3   3:12:00:00     277    9.8      16   -1.5      238.7   82.5  -13.0  145.6   -3.3   359.7
 10 JAN  3   3:13:00:00     279   10.0      16    1.5      238.8   82.4  -13.0  145.6   -3.3   359.2
 10 JAN  3   3:14:00:00     282    7.5      16    1.2      238.8   82.3  -13.0  145.6   -3.3   358.6
 10 JAN  3   3:15:00:00     278    7.1      16   -0.3      238.9   82.2  -13.0  145.6   -3.3   358.1
 10 JAN  3   3:16:00:00     285    7.0      17    0.8      238.9   82.1  -13.0  145.6   -3.3   357.5
 10 JAN  3   3:17:00:00     287    6.9      17    1.5      239.0   82.0  -13.1  145.6   -3.3   357.0
 10 JAN  3   3:18:00:00     286    8.4      17    3.5      239.0   81.9  -13.1  145.6   -3.3   356.4
 10 JAN  3   3:19:00:00     279    8.4      16    2.5      239.1   81.8  -13.1  145.6   -3.3   355.9
 10 JAN  3   3:20:00:00     281    8.0      16    1.8      239.1   81.7  -13.1  145.6   -3.4   355.3
 10 JAN  3   3:21:00:00     290    6.6      18    0.2      239.2   81.6  -13.1  145.6   -3.4   354.8
 10 JAN  3   3:22:00:00     300    5.0      19    0.0      239.2   81.5  -13.2  145.6   -3.4   354.2
 10 JAN  3   3:23:00:00     305    4.2      19   -1.1      239.3   81.4  -13.2  145.6   -3.4   353.7
 10 JAN  4   4:00:00:00     295    5.6      18   -1.3      239.4   81.3  -13.2  145.6   -3.4   353.1
 10 JAN  4   4:01:00:00     306    4.9      19   -0.8      239.4   81.2  -13.2  145.6   -3.4   352.6
 10 JAN  4   4:02:00:00     318    2.6      18   -0.8      239.5   81.1  -13.2  145.6   -3.4   352.0
 10 JAN  4   4:03:00:00     308    3.4      18   -1.1      239.5   81.0  -13.3  145.6   -3.4   351.5
 10 JAN  4   4:04:00:00     298    4.8      18   -1.6      239.6   80.9  -13.3  145.6   -3.4   350.9
 10 JAN  4   4:05:00:00     289    5.5      17   -2.2      239.6   80.8  -13.3  145.6   -3.4   350.4
 10 JAN  4   4:06:00:00     289    6.1      17   -1.8      239.7   80.7  -13.3  145.6   -3.4   349.8
 10 JAN  4   4:07:00:00     290    4.9      18   -3.0      239.7   80.6  -13.3  145.6   -3.4   349.3
 10 JAN  4   4:08:00:00     293    3.7      18   -1.6      239.8   80.5  -13.4  145.6   -3.4   348.7
 10 JAN  4   4:09:00:00     296    4.0      19   -1.6      239.9   80.4  -13.4  145.6   -3.4   348.2
 10 JAN  4   4:10:00:00     297    4.2      19   -1.7      239.9   80.3  -13.4  145.6   -3.4   347.6
 10 JAN  4   4:11:00:00     291    4.0      18   -1.0      240.0   80.2  -13.4  145.6   -3.4   347.1
 10 JAN  4   4:12:00:00     286    3.8      17    0.1      240.0   80.1  -13.4  145.6   -3.4   346.5
 10 JAN  4   4:13:00:00     287    3.8      17    0.3      240.1   80.0  -13.5  145.6   -3.4   346.0
 10 JAN  4   4:14:00:00     279    4.1      16    0.4      240.1   79.9  -13.5  145.6   -3.4   345.4
 10 JAN  4   4:15:00:00     274    3.1      13    0.7      240.2   79.8  -13.5  145.6   -3.4   344.9
 10 JAN  4   4:16:00:00     273    2.7      11    0.6      240.2   79.7  -13.5  145.6   -3.4   344.3
 10 JAN  4   4:17:00:00     272    3.0      10    0.9      240.3   79.6  -13.5  145.6   -3.5   343.8
 10 JAN  4   4:18:00:00     272    3.4       9    0.5      240.3   79.5  -13.6  145.6   -3.5   343.2
 10 JAN  4   4:19:00:00     272    3.9       9    0.1      240.4   79.4  -13.6  145.6   -3.5   342.7
 10 JAN  4   4:20:00:00     275    6.0      13   -1.5      240.5   79.3  -13.6  145.6   -3.5   342.1
 10 JAN  4   4:21:00:00     296    4.0      17    0.2      240.5   79.2  -13.6  145.6   -3.5   341.6
 10 JAN  4   4:22:00:00     280    4.3      15    0.4      240.6   79.1  -13.6  145.6   -3.5   341.0
 10 JAN  4   4:23:00:00     278    5.1      15   -1.0      240.6   79.0  -13.7  145.6   -3.5   340.5
 10 JAN  5   5:00:00:00     279    3.0      16    0.3      240.7   78.9  -13.7  145.6   -3.5   339.9
 10 JAN  5   5:01:00:00     284    2.9      17   -0.1      240.7   78.8  -13.7  145.6   -3.5   339.4
 10 JAN  5   5:02:00:00     274    4.2      13    0.3      240.8   78.7  -13.7  145.6   -3.5   338.8
 10 JAN  5   5:03:00:00     273    5.0      11    0.7      240.8   78.6  -13.7  145.6   -3.5   338.3
 10 JAN  5   5:04:00:00     273    5.4      11    0.7      240.9   78.5  -13.8  145.6   -3.5   337.7
 10 JAN  5   5:05:00:00     273    5.2      10    0.9      241.0   78.4  -13.8  145.6   -3.5   337.2
 10 JAN  5   5:06:00:00     273    4.9      10    0.7      241.0   78.3  -13.8  145.6   -3.5   336.6
 10 JAN  5   5:07:00:00     273    4.3      10    0.9      241.1   78.2  -13.8  145.6   -3.5   336.1
 10 JAN  5   5:08:00:00     273    5.3      11    1.2      241.1   78.1  -13.8  145.6   -3.5   335.5
 10 JAN  5   5:09:00:00     274    4.6      11    0.8      241.2   78.0  -13.9  145.6   -3.5   335.0
 10 JAN  5   5:10:00:00     273    5.0      10    0.7      241.2   77.9  -13.9  145.6   -3.5   334.4
 10 JAN  5   5:11:00:00     272    4.9       9    0.6      241.3   77.8  -13.9  145.6   -3.5   333.9
 10 JAN  5   5:12:00:00     273    5.2      11   -0.3      241.3   77.7  -13.9  145.6   -3.5   333.3
 10 JAN  5   5:13:00:00     271    4.9       8    0.5      241.4   77.6  -13.9  145.6   -3.5   332.8
 10 JAN  5   5:14:00:00     271    4.2       8    0.7      241.4   77.5  -14.0  145.6   -3.6   332.2
 10 JAN  5   5:15:00:00     276    4.9      12    1.1      241.5   77.4  -14.0  145.6   -3.6   331.7
 10 JAN  5   5:16:00:00     273    6.2      11    2.1      241.6   77.3  -14.0  145.6   -3.6   331.1
 10 JAN  5   5:17:00:00     274    6.1      13    1.9      241.6   77.2  -14.0  145.6   -3.6   330.6
 10 JAN  5   5:18:00:00     285    4.2      16    0.2      241.7   77.1  -14.0  145.6   -3.6   330.0
 10 JAN  5   5:19:00:00     282    3.9      16    0.8      241.7   77.0  -14.0  145.6   -3.6   329.5
 10 JAN  5   5:20:00:00     280    4.2      15    1.0      241.8   76.9  -14.1  145.6   -3.6   328.9
 10 JAN  5   5:21:00:00     294    2.9      18   -0.1      241.8   76.8  -14.1  145.6   -3.6   328.4
 10 JAN  5   5:22:00:00     296    2.1      18    0.5      241.9   76.7  -14.1  145.6   -3.6   327.9
 10 JAN  5   5:23:00:00     307    1.6      18    2.3      241.9   76.6  -14.1  145.6   -3.6   327.3
 10 JAN  6   6:00:00:00     297    2.9      18    2.7      242.0   76.5  -14.1  145.6   -3.6   326.8
 10 JAN  6   6:01:00:00     292    2.7      18    3.3      242.0   76.4  -14.2  145.6   -3.6   326.2
 10 JAN  6   6:02:00:00     334    2.1      19    5.1      242.1   76.3  -14.2  145.6   -3.6   325.7
 10 JAN  6   6:03:00:00     343    2.3      15    1.6      242.2   76.2  -14.2  145.6   -3.6   325.1
 10 JAN  6   6:04:00:00     337    2.4      18    4.1      242.2   76.1  -14.2  145.6   -3.6   324.6
 10 JAN  6   6:05:00:00     331    1.3      20    3.6      242.3   76.0  -14.2  145.6   -3.6   324.0
 10 JAN  6   6:06:00:00     334    1.9      19    3.7      242.3   75.9  -14.3  145.6   -3.6   323.5
 10 JAN  6   6:07:00:00     340    1.4      17    1.5      242.4   75.8  -14.3  145.6   -3.6   322.9
 10 JAN  6   6:08:00:00     339    2.1      19    2.4      242.4   75.7  -14.3  145.6   -3.6   322.4
 10 JAN  6   6:09:00:00     328    2.8      19    5.4      242.5   75.6  -14.3  145.6   -3.6   321.8
 10 JAN  6   6:10:00:00     320    2.1      18    3.3      242.5   75.5  -14.3  145.6   -3.6   321.3
 10 JAN  6   6:11:00:00     330    1.4      19    3.4      242.6   75.4  -14.3  145.6   -3.7   320.7
 10 JAN  6   6:12:00:00     340    2.2      17    1.3      242.6   75.3  -14.4  145.6   -3.7   320.2
 10 JAN  6   6:13:00:00     341    2.3      15    0.1      242.7   75.2  -14.4  145.6   -3.7   319.6
 10 JAN  6   6:14:00:00     336    2.2      16    1.8      242.8   75.1  -14.4  145.6   -3.7   319.1
 10 JAN  6   6:15:00:00     334    1.9      18    2.2      242.8   75.0  -14.4  145.6   -3.7   318.5
 10 JAN  6   6:16:00:00     336    2.3      18    1.6      242.9   74.9  -14.4  145.6   -3.7   318.0
 10 JAN  6   6:17:00:00     331    1.5      18    0.3      242.9   74.8  -14.5  145.6   -3.7   317.4
 10 JAN  6   6:18:00:00     312    1.3      18    0.0      243.0   74.6  -14.5  145.6   -3.7   316.9
 10 JAN  6   6:19:00:00     298    2.4      18    0.8      243.0   74.5  -14.5  145.6   -3.7   316.3
 10 JAN  6   6:20:00:00     315    1.9      18    0.2      243.1   74.4  -14.5  145.6   -3.7   315.8
 10 JAN  6   6:21:00:00     313    1.8      18    0.1      243.1   74.3  -14.5  145.6   -3.7   315.2
 10 JAN  6   6:22:00:00     302    2.3      18    0.0      243.2   74.2  -14.5  145.6   -3.7   314.7
 10 JAN  6   6:23:00:00     310    1.7      18   -0.3      243.2   74.1  -14.6  145.6   -3.7   314.1
 10 JAN  7   7:00:00:00     301    2.1      18    1.1      243.3   74.0  -14.6  145.6   -3.7   313.6
 10 JAN  7   7:01:00:00     289    2.8      17    1.1      243.3   73.9  -14.6  145.6   -3.7   313.0
 10 JAN  7   7:02:00:00     283    3.4      17    1.1      243.4   73.8  -14.6  145.6   -3.7   312.5
 10 JAN  7   7:03:00:00     278    4.6      16    1.0      243.5   73.7  -14.6  145.6   -3.7   311.9
 10 JAN  7   7:04:00:00     278    5.6      16   -2.0      243.5   73.6  -14.7  145.6   -3.7   311.4
 10 JAN  7   7:05:00:00     274    5.7      12   -0.1      243.6   73.5  -14.7  145.6   -3.7   310.8
 10 JAN  7   7:06:00:00     273    6.2      10   -0.5      243.6   73.4  -14.7  145.6   -3.7   310.3
 10 JAN  7   7:07:00:00     279    8.2      14   -5.0      243.7   73.3  -14.7  145.6   -3.7   309.7
 10 JAN  7   7:08:00:00     306    4.1      18   -4.5      243.7   73.2  -14.7  145.6   -3.8   309.2
 10 JAN  7   7:09:00:00     279    7.3      14   -4.7      243.8   73.1  -14.7  145.6   -3.8   308.6
 10 JAN  7   7:10:00:00     272    9.0       9   -7.6      243.8   73.0  -14.8  145.6   -3.8   308.1
 10 JAN  7   7:11:00:00     274   11.4      11   -6.7      243.9   72.9  -14.8  145.6   -3.8   307.5
 10 JAN  7   7:12:00:00     278    8.5      15   -4.2      243.9   72.8  -14.8  145.6   -3.8   307.0
 10 JAN  7   7:13:00:00     274   11.1      12   -2.8      244.0   72.6  -14.8  145.6   -3.8   306.4
 10 JAN  7   7:14:00:00     273   10.8      11   -4.4      244.0   72.5  -14.8  145.6   -3.8   305.9
 10 JAN  7   7:15:00:00     271    7.7       7   -1.7      244.1   72.4  -14.8  145.6   -3.8   305.3
 10 JAN  7   7:16:00:00     271    5.5       7   -0.3      244.1   72.3  -14.9  145.6   -3.8   304.8
 10 JAN  7   7:17:00:00     271    6.4       7   -0.9      244.2   72.2  -14.9  145.6   -3.8   304.2
 10 JAN  7   7:18:00:00     273    6.0      10   -0.9      244.3   72.1  -14.9  145.6   -3.8   303.7
 10 JAN  7   7:19:00:00     274    7.0      12   -0.9      244.3   72.0  -14.9  145.6   -3.8   303.1
 10 JAN  7   7:20:00:00     274    8.1      13   -2.1      244.4   71.9  -14.9  145.6   -3.8   302.6
 10 JAN  7   7:21:00:00     274    6.7      12   -1.5      244.4   71.8  -15.0  145.6   -3.8   302.0
 10 JAN  7   7:22:00:00     273    5.9      10   -0.9      244.5   71.7  -15.0  145.6   -3.8   301.5
 10 JAN  7   7:23:00:00     273    4.8      10    0.5      244.5   71.6  -15.0  145.6   -3.8   300.9
 10 JAN  8   8:00:00:00     278    4.6      15    0.6      244.6   71.5  -15.0  145.6   -3.8   300.4
 10 JAN  8   8:01:00:00     280    4.1      16    0.1      244.6   71.4  -15.0  145.5   -3.8   299.8
 10 JAN  8   8:02:00:00     292    2.5      18   -0.1      244.7   71.3  -15.0  145.5   -3.8   299.3
 10 JAN  8   8:03:00:00     296    2.2      18    1.5      244.7   71.1  -15.1  145.5   -3.8   298.7
 10 JAN  8   8:04:00:00     292    2.3      18    1.4      244.8   71.0  -15.1  145.5   -3.8   298.2
 10 JAN  8   8:05:00:00     290    2.5      18    1.8      244.8   70.9  -15.1  145.5   -3.9   297.6
 10 JAN  8   8:06:00:00     287    2.9      17    0.6      244.9   70.8  -15.1  145.5   -3.9   297.1
 10 JAN  8   8:07:00:00     281    3.6      16    0.7      244.9   70.7  -15.1  145.5   -3.9   296.5
 10 JAN  8   8:08:00:00     278    4.0      16    0.4      245.0   70.6  -15.1  145.5   -3.9   296.0
 10 JAN  8   8:09:00:00     276    4.0      15    0.4      245.0   70.5  -15.2  145.5   -3.9   295.4
 10 JAN  8   8:10:00:00     274    3.3      12   -0.1      245.1   70.4  -15.2  145.5   -3.9   294.9
 10 JAN  8   8:11:00:00     272    3.7       9    0.1      245.1   70.3  -15.2  145.5   -3.9   294.3
 10 JAN  8   8:12:00:00     272    4.0       9    0.4      245.2   70.2  -15.2  145.5   -3.9   293.8
 10 JAN  8   8:13:00:00     273    4.4      10    0.6      245.2   70.1  -15.2  145.5   -3.9   293.2
 10 JAN  8   8:14:00:00     273    4.6      11    0.4      245.3   70.0  -15.2  145.5   -3.9   292.7
 10 JAN  8   8:15:00:00     273    4.7      10    0.6      245.3   69.8  -15.3  145.5   -3.9   292.1
 10 JAN  8   8:16:00:00     273    4.8      10    0.5      245.4   69.7  -15.3  145.5   -3.9   291.6
 10 JAN  8   8:17:00:00     273    5.8      10   -0.4      245.5   69.6  -15.3  145.5   -3.9   291.0
 10 JAN  8   8:18:00:00     271    5.9       7   -0.9      245.5   69.5  -15.3  145.5   -3.9   290.5
 10 JAN  8   8:19:00:00     272    7.4       8   -2.4      245.6   69.4  -15.3  145.5   -3.9   289.9
 10 JAN  8   8:20:00:00     271    8.2       6   -1.8      245.6   69.3  -15.3  145.5   -3.9   289.4
 10 JAN  8   8:21:00:00     272    4.7       9    0.8      245.7   69.2  -15.4  145.5   -3.9   288.8
 10 JAN  8   8:22:00:00     273    3.1      11    1.1      245.7   69.1  -15.4  145.5   -3.9   288.3
 10 JAN  8   8:23:00:00     273    3.4      12    0.9      245.8   69.0  -15.4  145.5   -3.9   287.7
 10 JAN  9   9:00:00:00     274    4.0      13    0.3      245.8   68.9  -15.4  145.5   -3.9   287.2
 10 JAN  9   9:01:00:00     275    4.5      15   -0.2      245.9   68.8  -15.4  145.5   -3.9   286.6
 10 JAN  9   9:02:00:00     276    4.5      15   -0.8      245.9   68.6  -15.4  145.5   -3.9   286.1
 10 JAN  9   9:03:00:00     276    4.5      15   -0.3      246.0   68.5  -15.5  145.5   -4.0   285.5
 10 JAN  9   9:04:00:00     276    4.1      15    0.6      246.0   68.4  -15.5  145.5   -4.0   285.0
 10 JAN  9   9:05:00:00     276    4.7      16    0.5      246.1   68.3  -15.5  145.5   -4.0   284.4
 10 JAN  9   9:06:00:00     281    3.4      16   -0.7      246.1   68.2  -15.5  145.5   -4.0   283.9
 10 JAN  9   9:07:00:00     279    3.8      16   -0.4      246.2   68.1  -15.5  145.5   -4.0   283.3
 10 JAN  9   9:08:00:00     282    5.0      17   -0.2      246.2   68.0  -15.5  145.5   -4.0   282.8
 10 JAN  9   9:09:00:00     277    5.1      15    0.3      246.3   67.9  -15.6  145.5   -4.0   282.2
 10 JAN  9   9:10:00:00     277    5.3      16    0.3      246.3   67.8  -15.6  145.5   -4.0   281.7
 10 JAN  9   9:11:00:00     278    5.7      16   -0.4      246.4   67.7  -15.6  145.5   -4.0   281.1
 10 JAN  9   9:12:00:00     281    5.8      16   -0.4      246.4   67.5  -15.6  145.5   -4.0   280.6
 10 JAN  9   9:13:00:00     279    6.3      16   -0.5      246.5   67.4  -15.6  145.5   -4.0   280.0
 10 JAN  9   9:14:00:00     275    6.8      12    0.0      246.5   67.3  -15.6  145.5   -4.0   279.5
 10 JAN  9   9:15:00:00     274    7.0      13    0.1      246.6   67.2  -15.7  145.5   -4.0   278.9
 10 JAN  9   9:16:00:00     274    6.7      12   -0.1      246.6   67.1  -15.7  145.5   -4.0   278.4
 10 JAN  9   9:17:00:00     273    6.6      11    0.1      246.7   67.0  -15.7  145.5   -4.0   277.8
 10 JAN  9   9:18:00:00     273    6.9      10    0.7      246.7   66.9  -15.7  145.5   -4.0   277.3
 10 JAN  9   9:19:00:00     272    5.9       9   -0.1      246.8   66.8  -15.7  145.5   -4.0   276.7
 10 JAN  9   9:20:00:00     271    7.5       7    1.9      246.8   66.6  -15.7  145.5   -4.0   276.2
 10 JAN  9   9:21:00:00     272    5.1       8    0.7      246.9   66.5  -15.7  145.5   -4.0   275.6
 10 JAN  9   9:22:00:00     272    5.8       8   -0.1      246.9   66.4  -15.8  145.5   -4.0   275.1
 10 JAN  9   9:23:00:00     272    5.1       9    0.4      247.0   66.3  -15.8  145.5   -4.0   274.5
 10 JAN 10  10:00:00:00     273    4.9      10   -1.3      247.0   66.2  -15.8  145.5   -4.0   274.0
 10 JAN 10  10:01:00:00     272    5.8       9   -1.8      247.1   66.1  -15.8  145.5   -4.1   273.4
 10 JAN 10  10:02:00:00     271    6.1       8   -1.7      247.1   66.0  -15.8  145.5   -4.1   272.9
 10 JAN 10  10:03:00:00     272    6.5       9   -1.6      247.2   65.9  -15.8  145.5   -4.1   272.3
 10 JAN 10  10:04:00:00     273    9.5      11   -1.7      247.2   65.8  -15.9  145.5   -4.1   271.8
 10 JAN 10  10:05:00:00     274   12.2      12   -2.4      247.3   65.6  -15.9  145.5   -4.1   271.2
 10 JAN 10  10:06:00:00     274   10.4      12   -2.3      247.3   65.5  -15.9  145.5   -4.1   270.7
 10 JAN 10  10:07:00:00     273   13.7      11   -3.7      247.3   65.4  -15.9  145.5   -4.1   270.1
 10 JAN 10  10:08:00:00     277    7.3      15    0.1      247.4   65.3  -15.9  145.5   -4.1   269.6
 10 JAN 10  10:09:00:00     285    4.6      17    0.7      247.4   65.2  -15.9  145.5   -4.1   269.0
 10 JAN 10  10:10:00:00     285    4.8      17    0.9      247.5   65.1  -15.9  145.5   -4.1   268.5
 10 JAN 10  10:11:00:00     283    5.8      17    0.3      247.5   65.0  -16.0  145.5   -4.1   267.9
 10 JAN 10  10:12:00:00     277    6.9      16    0.6      247.6   64.8  -16.0  145.5   -4.1   267.4
 10 JAN 10  10:13:00:00     280    7.2      16    1.0      247.6   64.7  -16.0  145.5   -4.1   266.8
 10 JAN 10  10:14:00:00     307   10.6      18    4.1      247.7   64.6  -16.0  145.5   -4.1   266.3
 10 JAN 10  10:15:00:00     306   27.0      18    7.1      247.7   64.5  -16.0  145.5   -4.1   265.7
 10 JAN 10  10:16:00:00     300   25.0      18    7.8      247.8   64.4  -16.0  145.5   -4.1   265.2
 10 JAN 10  10:17:00:00     303   15.1      18    5.7      247.8   64.3  -16.1  145.5   -4.1   264.6
 10 JAN 10  10:18:00:00     302   12.2      18    4.7      247.9   64.2  -16.1  145.5   -4.1   264.1
 10 JAN 10  10:19:00:00     287   12.2      17    3.5      247.9   64.1  -16.1  145.5   -4.1   263.5
 10 JAN 10  10:20:00:00     285    9.7      17    2.0      248.0   63.9  -16.1  145.5   -4.1   263.0
 10 JAN 10  10:21:00:00     283   11.5      17    1.9      248.0   63.8  -16.1  145.5   -4.1   262.4
 10 JAN 10  10:22:00:00     279   12.6      16    1.5      248.1   63.7  -16.1  145.5   -4.1   261.9
 10 JAN 10  10:23:00:00     285   10.7      17    2.7      248.1   63.6  -16.1  145.5   -4.2   261.3
 10 JAN 11  11:00:00:00     283    8.5      16    0.5      248.2   63.5  -16.2  145.5   -4.2   260.8
 10 JAN 11  11:01:00:00     286    6.7      17   -0.6      248.2   63.4  -16.2  145.5   -4.2   260.2
 10 JAN 11  11:02:00:00     288   12.7      17    1.4      248.2   63.3  -16.2  145.5   -4.2   259.7
 10 JAN 11  11:03:00:00     305   14.8      18    4.6      248.3   63.1  -16.2  145.5   -4.2   259.1
 10 JAN 11  11:04:00:00     305   13.8      18    3.4      248.3   63.0  -16.2  145.5   -4.2   258.6
 10 JAN 11  11:05:00:00     313   17.9      18    5.5      248.4   62.9  -16.2  145.5   -4.2   258.0
 10 JAN 11  11:06:00:00     311   11.9      19    2.3      248.4   62.8  -16.2  145.5   -4.2   257.5
 10 JAN 11  11:07:00:00     320    4.8      19   -0.5      248.5   62.7  -16.3  145.5   -4.2   256.9
 10 JAN 11  11:08:00:00     321    8.9      21    1.5      248.5   62.6  -16.3  145.5   -4.2   256.4
 10 JAN 11  11:09:00:00     353   15.7      23    3.4      248.6   62.4  -16.3  145.5   -4.2   255.8
 10 JAN 11  11:10:00:00     354   14.0      22    3.2      248.6   62.3  -16.3  145.5   -4.2   255.3
 10 JAN 11  11:11:00:00     411    2.6      33    0.1      248.7   62.2  -16.3  145.5   -4.2   254.7
 10 JAN 11  11:12:00:00     436    3.3      37   -1.4      248.7   62.1  -16.3  145.5   -4.2   254.2
 10 JAN 11  11:13:00:00     464    1.8      40   -1.1      248.8   62.0  -16.3  145.5   -4.2   253.6
 10 JAN 11  11:14:00:00     573    0.9      56   -3.4      248.8   61.9  -16.4  145.5   -4.2   253.1
 10 JAN 11  11:15:00:00     548    1.8      44   -6.2      248.8   61.8  -16.4  145.5   -4.2   252.5
 10 JAN 11  11:16:00:00     502    1.4      43   -3.3      248.9   61.6  -16.4  145.5   -4.2   252.0
 10 JAN 11  11:17:00:00     474    2.8      36   -2.9      248.9   61.5  -16.4  145.5   -4.2   251.4
 10 JAN 11  11:18:00:00     512    2.8      39   -5.5      249.0   61.4  -16.4  145.5   -4.2   250.9
 10 JAN 11  11:19:00:00     483    3.1      35   -5.6      249.0   61.3  -16.4  145.5   -4.2   250.3
 10 JAN 11  11:20:00:00     457    4.3      29   -7.3      249.1   61.2  -16.4  145.5   -4.2   249.8
 10 JAN 11  11:21:00:00     475    4.3      35   -5.1      249.1   61.1  -16.5  145.5   -4.2   249.2
 10 JAN 11  11:22:00:00     475    3.7      34   -3.3      249.2   60.9  -16.5  145.5   -4.3   248.7
 10 JAN 11  11:23:00:00     476    3.8      34   -3.0      249.2   60.8  -16.5  145.5   -4.3   248.1
 10 JAN 12  12:00:00:00     476    3.5      33   -2.7      249.2   60.7  -16.5  145.5   -4.3   247.6
 10 JAN 12  12:01:00:00     470    3.6      32   -2.3      249.3   60.6  -16.5  145.5   -4.3   247.0
 10 JAN 12  12:02:00:00     472    3.7      33   -2.3      249.3   60.5  -16.5  145.5   -4.3   246.5
 10 JAN 12  12:03:00:00     482    3.3      36   -2.5      249.4   60.4  -16.5  145.5   -4.3   245.9
 10 JAN 12  12:04:00:00     481    2.3      36   -1.3      249.4   60.2  -16.6  145.5   -4.3   245.4
 10 JAN 12  12:05:00:00     477    2.9      33   -3.1      249.5   60.1  -16.6  145.5   -4.3   244.8
 10 JAN 12  12:06:00:00     478    2.9      33   -3.3      249.5   60.0  -16.6  145.5   -4.3   244.3
 10 JAN 12  12:07:00:00     472    2.5      32   -2.0      249.5   59.9  -16.6  145.5   -4.3   243.7
 10 JAN 12  12:08:00:00     457    3.2      27   -0.5      249.6   59.8  -16.6  145.5   -4.3   243.2
 10 JAN 12  12:09:00:00     457    3.2      27   -1.5      249.6   59.7  -16.6  145.5   -4.3   242.6
 10 JAN 12  12:10:00:00     465    2.5      31   -2.1      249.7   59.5  -16.6  145.5   -4.3   242.1
 10 JAN 12  12:11:00:00     470    2.0      33   -2.2      249.7   59.4  -16.7  145.5   -4.3   241.5
 10 JAN 12  12:12:00:00     461    2.0      30   -1.4      249.8   59.3  -16.7  145.5   -4.3   241.0
 10 JAN 12  12:13:00:00     456    2.5      27   -1.8      249.8   59.2  -16.7  145.5   -4.3   240.4
 10 JAN 12  12:14:00:00     452    2.8      26   -1.9      249.8   59.1  -16.7  145.5   -4.3   239.9
 10 JAN 12  12:15:00:00     450    3.1      25   -2.8      249.9   58.9  -16.7  145.5   -4.3   239.3
 10 JAN 12  12:16:00:00     452    3.5      25   -4.3      249.9   58.8  -16.7  145.5   -4.3   238.8
 10 JAN 12  12:17:00:00     450    3.6      24   -3.5      250.0   58.7  -16.7  145.5   -4.3   238.2
 10 JAN 12  12:18:00:00     443    3.4      24   -2.8      250.0   58.6  -16.8  145.5   -4.3   237.7
 10 JAN 12  12:19:00:00     442    3.4      25   -2.7      250.1   58.5  -16.8  145.5   -4.3   237.1
 10 JAN 12  12:20:00:00     442    3.0      28   -2.5      250.1   58.3  -16.8  145.5   -4.4   236.6
 10 JAN 12  12:21:00:00     431    3.5      32   -3.0      250.1   58.2  -16.8  145.5   -4.4   236.0
 10 JAN 12  12:22:00:00     433    3.4      32   -1.4      250.2   58.1  -16.8  145.5   -4.4   235.5
 10 JAN 12  12:23:00:00     428    3.5      33   -1.7      250.2   58.0  -16.8  145.5   -4.4   234.9
 10 JAN 13  13:00:00:00     439    2.5      29   -1.2      250.3   57.9  -16.8  145.5   -4.4   234.4
 10 JAN 13  13:01:00:00     434    3.2      33   -1.5      250.3   57.8  -16.8  145.5   -4.4   233.8
 10 JAN 13  13:02:00:00     429    3.5      36   -0.6      250.3   57.6  -16.9  145.5   -4.4   233.3
 10 JAN 13  13:03:00:00     425    3.4      36   -0.6      250.4   57.5  -16.9  145.5   -4.4   232.7
 10 JAN 13  13:04:00:00     421    3.3      35    0.0      250.4   57.4  -16.9  145.5   -4.4   232.2
 10 JAN 13  13:05:00:00     428    2.9      35   -0.8      250.5   57.3  -16.9  145.5   -4.4   231.6
 10 JAN 13  13:06:00:00     443    3.9      28   -1.4      250.5   57.2  -16.9  145.5   -4.4   231.1
 10 JAN 13  13:07:00:00     432    3.4      33    0.4      250.6   57.0  -16.9  145.5   -4.4   230.5
 10 JAN 13  13:08:00:00     451    2.8      32   -0.7      250.6   56.9  -16.9  145.5   -4.4   230.0
 10 JAN 13  13:09:00:00     456    4.0      33   -0.9      250.6   56.8  -17.0  145.5   -4.4   229.4
 10 JAN 13  13:10:00:00     461    3.9      33   -1.6      250.7   56.7  -17.0  145.5   -4.4   228.9
 10 JAN 13  13:11:00:00     457    4.0      33    0.8      250.7   56.6  -17.0  145.5   -4.4   228.3
 10 JAN 13  13:12:00:00     449    4.0      32    1.1      250.8   56.4  -17.0  145.5   -4.4   227.8
 10 JAN 13  13:13:00:00     437    3.6      32    1.0      250.8   56.3  -17.0  145.5   -4.4   227.2
 10 JAN 13  13:14:00:00     437    3.7      33    1.4      250.8   56.2  -17.0  145.5   -4.4   226.7
 10 JAN 13  13:15:00:00     468    1.8      36   -1.0      250.9   56.1  -17.0  145.5   -4.4   226.1
 10 JAN 13  13:16:00:00     478    2.2      39   -1.3      250.9   56.0  -17.0  145.5   -4.4   225.6
 10 JAN 13  13:17:00:00     484    2.3      38   -1.7      251.0   55.8  -17.1  145.5   -4.4   225.0
 10 JAN 13  13:18:00:00     490    2.3      40   -2.0      251.0   55.7  -17.1  145.5   -4.4   224.5
 10 JAN 13  13:19:00:00     482    2.5      40   -1.5      251.0   55.6  -17.1  145.5   -4.5   223.9
 10 JAN 13  13:20:00:00     486    2.2      40   -2.3      251.1   55.5  -17.1  145.5   -4.5   223.4
 10 JAN 13  13:21:00:00     493    2.0      42   -1.4      251.1   55.3  -17.1  145.5   -4.5   222.8
 10 JAN 13  13:22:00:00     491    2.2      39   -2.8      251.1   55.2  -17.1  145.5   -4.5   222.3
 10 JAN 13  13:23:00:00     478    1.8      37   -0.1      251.2   55.1  -17.1  145.5   -4.5   221.7
 10 JAN 14  14:00:00:00     471    2.0      34   -1.0      251.2   55.0  -17.1  145.5   -4.5   221.2
 10 JAN 14  14:01:00:00     493    1.6      41   -1.6      251.3   54.9  -17.2  145.5   -4.5   220.6
 10 JAN 14  14:02:00:00     491    1.3      41   -1.2      251.3   54.7  -17.2  145.5   -4.5   220.1
 10 JAN 14  14:03:00:00     491    1.4      40   -1.9      251.3   54.6  -17.2  145.5   -4.5   219.5
 10 JAN 14  14:04:00:00     509    1.2      43   -2.8      251.4   54.5  -17.2  145.5   -4.5   219.0
 10 JAN 14  14:05:00:00     522    0.8      47   -1.6      251.4   54.4  -17.2  145.5   -4.5   218.4
 10 JAN 14  14:06:00:00     509    0.8      45   -0.7      251.5   54.2  -17.2  145.5   -4.5   217.9
 10 JAN 14  14:07:00:00     474    1.4      36   -0.8      251.5   54.1  -17.2  145.5   -4.5   217.3
 10 JAN 14  14:08:00:00     462    1.7      32   -0.8      251.5   54.0  -17.2  145.5   -4.5   216.8
 10 JAN 14  14:09:00:00      -1   -1.0      -1   99.0      251.6   53.9  -17.3  145.5   -4.5   216.2
 10 JAN 14  14:10:00:00      -1   -1.0      -1   99.0      251.6   53.8  -17.3  145.5   -4.5   215.7
 10 JAN 14  14:11:00:00      -1   -1.0      -1   99.0      251.6   53.6  -17.3  145.5   -4.5   215.1
 10 JAN 14  14:12:00:00      -1   -1.0      -1   99.0      251.7   53.5  -17.3  145.5   -4.5   214.6
 10 JAN 14  14:13:00:00      -1   -1.0      -1   99.0      251.7   53.4  -17.3  145.5   -4.5   214.0
 10 JAN 14  14:14:00:00      -1   -1.0      -1   99.0      251.7   53.3  -17.3  145.5   -4.5   213.5
 10 JAN 14  14:15:00:00      -1   -1.0      -1   99.0      251.8   53.1  -17.3  145.5   -4.5   212.9
 10 JAN 14  14:16:00:00      -1   -1.0      -1   99.0      251.8   53.0  -17.3  145.5   -4.5   212.4
 10 JAN 14  14:17:00:00      -1   -1.0      -1   99.0      251.9   52.9  -17.4  145.5   -4.5   211.8
 10 JAN 14  14:18:00:00      -1   -1.0      -1   99.0      251.9   52.8  -17.4  145.5   -4.6   211.3
 10 JAN 14  14:19:00:00      -1   -1.0      -1   99.0      251.9   52.6  -17.4  145.5   -4.6   210.7
 10 JAN 14  14:20:00:00      -1   -1.0      -1   99.0      252.0   52.5  -17.4  145.5   -4.6   210.2
 10 JAN 14  14:21:00:00      -1   -1.0      -1   99.0      252.0   52.4  -17.4  145.5   -4.6   209.6
 10 JAN 14  14:22:00:00      -1   -1.0      -1   99.0      252.0   52.3  -17.4  145.5   -4.6   209.1
 10 JAN 14  14:23:00:00      -1   -1.0      -1   99.0      252.1   52.1  -17.4  145.5   -4.6   208.5
 10 JAN 15  15:00:00:00      -1   -1.0      -1   99.0      252.1   52.0  -17.4  145.5   -4.6   208.0
 10 JAN 15  15:01:00:00     446    2.3      20   -1.5      252.1   51.9  -17.5  145.5   -4.6   207.4
 10 JAN 15  15:02:00:00     445    2.2      19   -1.3      252.2   51.8  -17.5  145.5   -4.6   206.9
 10 JAN 15  15:03:00:00     446    1.9      21   -1.6      252.2   51.6  -17.5  145.5   -4.6   206.3
 10 JAN 15  15:04:00:00     448    1.5      24   -1.9      252.2   51.5  -17.5  145.5   -4.6   205.8
 10 JAN 15  15:05:00:00     445    1.4      22   -1.3      252.3   51.4  -17.5  145.5   -4.6   205.2
 10 JAN 15  15:06:00:00     446    1.2      24   -1.6      252.3   51.3  -17.5  145.5   -4.6   204.7
 10 JAN 15  15:07:00:00      -1   -1.0      -1   99.0      252.4   51.1  -17.5  145.5   -4.6   204.1
 10 JAN 15  15:08:00:00      -1   -1.0      -1   99.0      252.4   51.0  -17.5  145.5   -4.6   203.6
 10 JAN 15  15:09:00:00      -1   -1.0      -1   99.0      252.4   50.9  -17.5  145.5   -4.6   203.0
 10 JAN 15  15:10:00:00      -1   -1.0      -1   99.0      252.5   50.8  -17.6  145.5   -4.6   202.5
 10 JAN 15  15:11:00:00      -1   -1.0      -1   99.0      252.5   50.6  -17.6  145.5   -4.6   201.9
 10 JAN 15  15:12:00:00      -1   -1.0      -1   99.0      252.5   50.5  -17.6  145.5   -4.6   201.4
 10 JAN 15  15:13:00:00      -1   -1.0      -1   99.0      252.6   50.4  -17.6  145.5   -4.6   200.8
 10 JAN 15  15:14:00:00      -1   -1.0      -1   99.0      252.6   50.3  -17.6  145.5   -4.6   200.3
 10 JAN 15  15:15:00:00      -1   -1.0      -1   99.0      252.6   50.1  -17.6  145.5   -4.6   199.7
 10 JAN 15  15:16:00:00     390    3.9      30   -0.8      252.7   50.0  -17.6  145.5   -4.6   199.2
 10 JAN 15  15:17:00:00     398    3.6      31   -0.5      252.7   49.9  -17.6  145.6   -4.6   198.7
 10 JAN 15  15:18:00:00     393    4.1      31   -0.2      252.7   49.8  -17.6  145.6   -4.7   198.1
 10 JAN 15  15:19:00:00     399    3.1      30   -0.6      252.8   49.6  -17.7  145.6   -4.7   197.6
 10 JAN 15  15:20:00:00     440    2.6      33   -4.1      252.8   49.5  -17.7  145.6   -4.7   197.0
 10 JAN 15  15:21:00:00     436    2.8      35   -4.0      252.8   49.4  -17.7  145.6   -4.7   196.5
 10 JAN 15  15:22:00:00     430    2.8      33   -3.2      252.9   49.3  -17.7  145.6   -4.7   195.9
 10 JAN 15  15:23:00:00     431    2.7      33   -3.8      252.9   49.1  -17.7  145.6   -4.7   195.4
 10 JAN 16  16:00:00:00     437    2.1      36   -1.1      252.9   49.0  -17.7  145.6   -4.7   194.8
 10 JAN 16  16:01:00:00     436    2.0      35   -1.8      253.0   48.9  -17.7  145.6   -4.7   194.3
 10 JAN 16  16:02:00:00     447    1.7      34   -2.5      253.0   48.7  -17.7  145.6   -4.7   193.7
 10 JAN 16  16:03:00:00     454    1.4      34   -3.1      253.0   48.6  -17.7  145.6   -4.7   193.2
 10 JAN 16  16:04:00:00     454    1.2      34   -2.5      253.0   48.5  -17.8  145.6   -4.7   192.6
 10 JAN 16  16:05:00:00     452    1.1      35   -2.7      253.1   48.4  -17.8  145.6   -4.7   192.1
 10 JAN 16  16:06:00:00     446    1.1      31   -1.6      253.1   48.2  -17.8  145.6   -4.7   191.5
 10 JAN 16  16:07:00:00     445    1.1      29   -2.6      253.1   48.1  -17.8  145.6   -4.7   191.0
 10 JAN 16  16:08:00:00     444    1.5      23   -2.5      253.2   48.0  -17.8  145.6   -4.7   190.4
 10 JAN 16  16:09:00:00     431    1.2      29   -3.3      253.2   47.9  -17.8  145.6   -4.7   189.9
 10 JAN 16  16:10:00:00     414    1.0      31   -0.2      253.2   47.7  -17.8  145.6   -4.7   189.3
 10 JAN 16  16:11:00:00     396    1.1      29   -0.4      253.3   47.6  -17.8  145.6   -4.7   188.8
 10 JAN 16  16:12:00:00     364    2.0      22   -0.1      253.3   47.5  -17.8  145.6   -4.7   188.2
 10 JAN 16  16:13:00:00     354    2.5      20   -0.8      253.3   47.3  -17.9  145.6   -4.7   187.7
 10 JAN 16  16:14:00:00     354    2.4      20   -0.7      253.4   47.2  -17.9  145.6   -4.7   187.1
 10 JAN 16  16:15:00:00     364    3.2      22   -3.9      253.4   47.1  -17.9  145.6   -4.7   186.6
 10 JAN 16  16:16:00:00     358    3.7      21   -4.7      253.4   47.0  -17.9  145.6   -4.7   186.0
 10 JAN 16  16:17:00:00     356    3.9      21   -2.9      253.4   46.8  -17.9  145.6   -4.7   185.5
 10 JAN 16  16:18:00:00     351    2.7      18   -0.7      253.5   46.7  -17.9  145.6   -4.8   184.9
 10 JAN 16  16:19:00:00     347    2.4      15   -0.4      253.5   46.6  -17.9  145.6   -4.8   184.4
 10 JAN 16  16:20:00:00     348    2.5      15   -0.5      253.5   46.4  -17.9  145.6   -4.8   183.8
 10 JAN 16  16:21:00:00     346    4.0      10    0.4      253.6   46.3  -17.9  145.6   -4.8   183.3
 10 JAN 16  16:22:00:00     345    4.3       8    0.1      253.6   46.2  -18.0  145.6   -4.8   182.7
 10 JAN 16  16:23:00:00     346    4.4       9   -0.1      253.6   46.0  -18.0  145.6   -4.8   182.2
 10 JAN 17  17:00:00:00     348    3.5      15   -1.0      253.7   45.9  -18.0  145.6   -4.8   181.6
 10 JAN 17  17:01:00:00     351    3.0      20   -2.1      253.7   45.8  -18.0  145.6   -4.8   181.1
 10 JAN 17  17:02:00:00     352    3.6      20   -2.0      253.7   45.7  -18.0  145.6   -4.8   180.5
 10 JAN 17  17:03:00:00     349    2.7      20   -1.6      253.7   45.5  -18.0  145.6   -4.8   180.0
 10 JAN 17  17:04:00:00     349    2.7      20   -1.5      253.8   45.4  -18.0  145.6   -4.8   179.4
 10 JAN 17  17:05:00:00     348    3.2      19   -1.7      253.8   45.3  -18.0  145.6   -4.8   178.9
 10 JAN 17  17:06:00:00     347    4.5      15   -2.8      253.8   45.1  -18.0  145.6   -4.8   178.3
 10 JAN 17  17:07:00:00     347    4.3      15   -3.2      253.9   45.0  -18.0  145.6   -4.8   177.8
 10 JAN 17  17:08:00:00     341    1.9      20   -1.5      253.9   44.9  -18.1  145.6   -4.8   177.2
 10 JAN 17  17:09:00:00     337    1.6      20   -1.7      253.9   44.7  -18.1  145.6   -4.8   176.7
 10 JAN 17  17:10:00:00     338    2.3      19   -3.8      253.9   44.6  -18.1  145.6   -4.8   176.1
 10 JAN 17  17:11:00:00     334    1.7      20   -3.4      254.0   44.5  -18.1  145.6   -4.8   175.6
 10 JAN 17  17:12:00:00     333    1.3      21   -2.0      254.0   44.3  -18.1  145.6   -4.8   175.0
 10 JAN 17  17:13:00:00     347    5.6      15   -4.7      254.0   44.2  -18.1  145.6   -4.8   174.5
 10 JAN 17  17:14:00:00     345    6.3      18   -5.8      254.0   44.1  -18.1  145.6   -4.8   173.9
 10 JAN 17  17:15:00:00     342    4.7      19   -7.9      254.1   44.0  -18.1  145.6   -4.8   173.4
 10 JAN 17  17:16:00:00     340    6.2      19   -8.7      254.1   43.8  -18.1  145.6   -4.8   172.8
 10 JAN 17  17:17:00:00     335    4.0      19   -8.4      254.1   43.7  -18.1  145.6   -4.8   172.3
 10 JAN 17  17:18:00:00     329    4.2      19   -8.9      254.2   43.6  -18.2  145.6   -4.9   171.7
 10 JAN 17  17:19:00:00     336    5.5      19   -8.9      254.2   43.4  -18.2  145.6   -4.9   171.2
 10 JAN 17  17:20:00:00     338    5.7      18   -8.6      254.2   43.3  -18.2  145.6   -4.9   170.6
 10 JAN 17  17:21:00:00     343    7.6      15   -8.6      254.2   43.2  -18.2  145.6   -4.9   170.1
 10 JAN 17  17:22:00:00     338    6.4      16   -8.2      254.3   43.0  -18.2  145.6   -4.9   169.5
 10 JAN 17  17:23:00:00     347    2.4      16   -1.3      254.3   42.9  -18.2  145.6   -4.9   169.0
 10 JAN 18  18:00:00:00     346    3.1      13    0.0      254.3   42.8  -18.2  145.6   -4.9   168.4
 10 JAN 18  18:01:00:00     346    4.0      14   -4.9      254.3   42.6  -18.2  145.6   -4.9   167.9
 10 JAN 18  18:02:00:00     345    2.7      15   -2.8      254.4   42.5  -18.2  145.6   -4.9   167.3
 10 JAN 18  18:03:00:00     345    3.4      16   -5.6      254.4   42.4  -18.2  145.6   -4.9   166.8
 10 JAN 18  18:04:00:00     346    4.1      11   -2.7      254.4   42.2  -18.3  145.6   -4.9   166.2
 10 JAN 18  18:05:00:00     346    4.4      10   -2.0      254.4   42.1  -18.3  145.6   -4.9   165.7
 10 JAN 18  18:06:00:00     344    3.7      14   -1.7      254.5   42.0  -18.3  145.6   -4.9   165.1
 10 JAN 18  18:07:00:00     344    3.5      15   -1.0      254.5   41.8  -18.3  145.6   -4.9   164.6
 10 JAN 18  18:08:00:00     345    3.4      10   -0.7      254.5   41.7  -18.3  145.6   -4.9   164.0
 10 JAN 18  18:09:00:00     345    2.7       8   -0.5      254.5   41.6  -18.3  145.6   -4.9   163.5
 10 JAN 18  18:10:00:00     346    2.6      10   -1.5      254.6   41.4  -18.3  145.6   -4.9   162.9
 10 JAN 18  18:11:00:00     346    2.0      16   -2.7      254.6   41.3  -18.3  145.6   -4.9   162.4
 10 JAN 18  18:12:00:00     346    2.2      14   -0.9      254.6   41.2  -18.3  145.6   -4.9   161.8
 10 JAN 18  18:13:00:00     345    1.8      19   -1.3      254.6   41.0  -18.3  145.6   -4.9   161.3
 10 JAN 18  18:14:00:00     348    1.4      21   -1.2      254.7   40.9  -18.3  145.6   -4.9   160.7
 10 JAN 18  18:15:00:00     353    1.0      24   -2.0      254.7   40.8  -18.4  145.6   -4.9   160.2
 10 JAN 18  18:16:00:00     345    1.2      26   -3.4      254.7   40.6  -18.4  145.6   -4.9   159.6
 10 JAN 18  18:17:00:00     349    1.6      24   -3.2      254.7   40.5  -18.4  145.6   -4.9   159.1
 10 JAN 18  18:18:00:00     341    2.0      23   -4.7      254.8   40.4  -18.4  145.6   -4.9   158.5
 10 JAN 18  18:19:00:00     345    2.6      22   -3.3      254.8   40.2  -18.4  145.6   -5.0   158.0
 10 JAN 18  18:20:00:00     344    3.9      21   -3.3      254.8   40.1  -18.4  145.6   -5.0   157.4
 10 JAN 18  18:21:00:00     345    5.9      18   -3.5      254.8   39.9  -18.4  145.6   -5.0   156.9
 10 JAN 18  18:22:00:00     345    4.8      18   -3.1      254.9   39.8  -18.4  145.6   -5.0   156.3
 10 JAN 18  18:23:00:00     341    6.1      20   -4.7      254.9   39.7  -18.4  145.6   -5.0   155.8
 10 JAN 19  19:00:00:00     346    6.2      18   -4.8      254.9   39.5  -18.4  145.6   -5.0   155.2
 10 JAN 19  19:01:00:00     347    5.0      14   -2.6      254.9   39.4  -18.4  145.6   -5.0   154.7
 10 JAN 19  19:02:00:00     347    3.8      14   -1.8      254.9   39.3  -18.5  145.6   -5.0   154.1
 10 JAN 19  19:03:00:00     347    3.1      18   -2.0      255.0   39.1  -18.5  145.6   -5.0   153.6
 10 JAN 19  19:04:00:00     339    2.5      21   -3.4      255.0   39.0  -18.5  145.6   -5.0   153.0
 10 JAN 19  19:05:00:00     339    1.9      23   -2.0      255.0   38.9  -18.5  145.6   -5.0   152.5
 10 JAN 19  19:06:00:00     342    1.7      24   -1.5      255.0   38.7  -18.5  145.6   -5.0   151.9
 10 JAN 19  19:07:00:00     342    2.2      23   -2.7      255.1   38.6  -18.5  145.6   -5.0   151.4
 10 JAN 19  19:08:00:00     336    2.3      23   -6.0      255.1   38.5  -18.5  145.6   -5.0   150.8
 10 JAN 19  19:09:00:00     319    1.7      21   -0.5      255.1   38.3  -18.5  145.6   -5.0   150.3
 10 JAN 19  19:10:00:00     307    1.8      20    1.0      255.1   38.2  -18.5  145.6   -5.0   149.7
 10 JAN 19  19:11:00:00     341    0.7      26   -0.4      255.1   38.0  -18.5  145.6   -5.0   149.2
 10 JAN 19  19:12:00:00     354    0.5      27   -0.3      255.2   37.9  -18.5  145.6   -5.0   148.6
 10 JAN 19  19:13:00:00     358    0.8      25   -0.1      255.2   37.8  -18.6  145.6   -5.0   148.1
 10 JAN 19  19:14:00:00     354    0.5      27   -0.7      255.2   37.6  -18.6  145.6   -5.0   147.5
 10 JAN 19  19:15:00:00     358    0.6      27   -0.7      255.2   37.5  -18.6  145.6   -5.0   147.0
 10 JAN 19  19:16:00:00     345    0.9      23    0.1      255.2   37.4  -18.6  145.6   -5.0   146.4
 10 JAN 19  19:17:00:00     355    1.4      22    0.3      255.3   37.2  -18.6  145.6   -5.0   145.9
 10 JAN 19  19:18:00:00     347    1.7      21    1.4      255.3   37.1  -18.6  145.6   -5.0   145.3
 10 JAN 19  19:19:00:00     323    1.8      22    0.9      255.3   36.9  -18.6  145.6   -5.0   144.8
 10 JAN 19  19:20:00:00     330    2.1      22    1.5      255.3   36.8  -18.6  145.6   -5.1   144.2
 10 JAN 19  19:21:00:00     330    3.7      21    3.0      255.4   36.7  -18.6  145.6   -5.1   143.7
 10 JAN 19  19:22:00:00     334    5.2      20    4.6      255.4   36.5  -18.6  145.6   -5.1   143.1
 10 JAN 19  19:23:00:00     333    5.9      20    5.1      255.4   36.4  -18.6  145.6   -5.1   142.6
 10 JAN 20  20:00:00:00     333    6.7      20    5.3      255.4   36.3  -18.6  145.6   -5.1   142.0
 10 JAN 20  20:01:00:00     328    6.4      20    5.5      255.4   36.1  -18.7  145.6   -5.1   141.5
 10 JAN 20  20:02:00:00     305   12.1      19    5.1      255.5   36.0  -18.7  145.6   -5.1   140.9
 10 JAN 20  20:03:00:00     293   12.2      18    4.3      255.5   35.8  -18.7  145.6   -5.1   140.4
 10 JAN 20  20:04:00:00     287   14.4      17    5.0      255.5   35.7  -18.7  145.6   -5.1   139.8
 10 JAN 20  20:05:00:00     280   19.3      16    6.0      255.5   35.6  -18.7  145.6   -5.1   139.3
 10 JAN 20  20:06:00:00     275   17.8      14    5.0      255.5   35.4  -18.7  145.6   -5.1   138.7
 10 JAN 20  20:07:00:00     275   22.8      14    6.9      255.5   35.3  -18.7  145.6   -5.1   138.2
 10 JAN 20  20:08:00:00     288   18.6      17    7.7      255.6   35.1  -18.7  145.6   -5.1   137.6
 10 JAN 20  20:09:00:00     312   13.4      20    8.8      255.6   35.0  -18.7  145.6   -5.1   137.1
 10 JAN 20  20:10:00:00     349    5.0      24    6.4      255.6   34.9  -18.7  145.6   -5.1   136.5
 10 JAN 20  20:11:00:00     377   11.6      27    6.3      255.6   34.7  -18.7  145.6   -5.1   136.0
 10 JAN 20  20:12:00:00     393   16.6      30    5.6      255.6   34.6  -18.7  145.6   -5.1   135.4
 10 JAN 20  20:13:00:00     387   16.0      28    2.7      255.7   34.4  -18.8  145.6   -5.1   134.9
 10 JAN 20  20:14:00:00     394   18.9      28   -0.6      255.7   34.3  -18.8  145.6   -5.1   134.3
 10 JAN 20  20:15:00:00     408   20.1      31   -3.8      255.7   34.2  -18.8  145.6   -5.1   133.8
 10 JAN 20  20:16:00:00     419   12.0      33   -0.9      255.7   34.0  -18.8  145.6   -5.1   133.2
 10 JAN 20  20:17:00:00     495    4.7      50    1.3      255.7   33.9  -18.8  145.6   -5.1   132.7
 10 JAN 20  20:18:00:00     551    3.3      49    1.7      255.7   33.7  -18.8  145.6   -5.1   132.1
 10 JAN 20  20:19:00:00     546    2.9      49    0.9      255.8   33.6  -18.8  145.6   -5.1   131.6
 10 JAN 20  20:20:00:00     556    1.5      49   -0.3      255.8   33.5  -18.8  145.6   -5.1   131.0
 10 JAN 20  20:21:00:00     553    1.3      47   -0.3      255.8   33.3  -18.8  145.6   -5.1   130.5
 10 JAN 20  20:22:00:00     536    1.1      46   -1.5      255.8   33.2  -18.8  145.6   -5.2   129.9
 10 JAN 20  20:23:00:00     543    1.3      46    0.6      255.8   33.0  -18.8  145.6   -5.2   129.4
 10 JAN 21  21:00:00:00     546    0.9      43    1.5      255.9   32.9  -18.8  145.6   -5.2   128.8
 10 JAN 21  21:01:00:00     542    0.9      45    2.4      255.9   32.8  -18.8  145.6   -5.2   128.3
 10 JAN 21  21:02:00:00     503    1.1      39    1.4      255.9   32.6  -18.9  145.6   -5.2   127.7
 10 JAN 21  21:03:00:00     493    1.0      37    0.0      255.9   32.5  -18.9  145.6   -5.2   127.2
 10 JAN 21  21:04:00:00     485    1.1      35    0.2      255.9   32.3  -18.9  145.6   -5.2   126.6
 10 JAN 21  21:05:00:00     474    1.5      33    0.4      255.9   32.2  -18.9  145.6   -5.2   126.1
 10 JAN 21  21:06:00:00     479    1.9      33    0.0      256.0   32.1  -18.9  145.6   -5.2   125.5
 10 JAN 21  21:07:00:00     479    1.7      32   -0.3      256.0   31.9  -18.9  145.6   -5.2   125.0
 10 JAN 21  21:08:00:00     460    2.1      27   -0.1      256.0   31.8  -18.9  145.6   -5.2   124.4
 10 JAN 21  21:09:00:00     453    2.4      27   -1.2      256.0   31.6  -18.9  145.6   -5.2   123.9
 10 JAN 21  21:10:00:00     434    1.8      32   -0.7      256.0   31.5  -18.9  145.6   -5.2   123.3
 10 JAN 21  21:11:00:00     406    2.0      30   -0.5      256.0   31.3  -18.9  145.6   -5.2   122.8
 10 JAN 21  21:12:00:00     437    0.9      26    0.7      256.0   31.2  -18.9  145.6   -5.2   122.2
 10 JAN 21  21:13:00:00     373    2.4      23    1.9      256.1   31.1  -18.9  145.6   -5.2   121.7
 10 JAN 21  21:14:00:00     376    2.1      24    1.3      256.1   30.9  -18.9  145.6   -5.2   121.2
 10 JAN 21  21:15:00:00     438    1.5      29   -1.1      256.1   30.8  -19.0  145.6   -5.2   120.6
 10 JAN 21  21:16:00:00     447    1.5      27   -1.1      256.1   30.6  -19.0  145.6   -5.2   120.1
 10 JAN 21  21:17:00:00     443    1.4      29   -1.2      256.1   30.5  -19.0  145.6   -5.2   119.5
 10 JAN 21  21:18:00:00     446    1.3      31   -1.1      256.1   30.3  -19.0  145.6   -5.2   119.0
 10 JAN 21  21:19:00:00     449    1.2      28   -0.7      256.2   30.2  -19.0  145.6   -5.2   118.4
 10 JAN 21  21:20:00:00     452    1.1      25   -1.7      256.2   30.1  -19.0  145.6   -5.2   117.9
 10 JAN 21  21:21:00:00     451    1.5      26   -1.4      256.2   29.9  -19.0  145.6   -5.2   117.3
 10 JAN 21  21:22:00:00     441    2.0      27   -1.4      256.2   29.8  -19.0  145.6   -5.2   116.8
 10 JAN 21  21:23:00:00     434    2.1      27   -2.5      256.2   29.6  -19.0  145.6   -5.2   116.2
 10 JAN 22  22:00:00:00     435    2.0      26   -1.6      256.2   29.5  -19.0  145.6   -5.3   115.7
 10 JAN 22  22:01:00:00     436    2.1      26   -1.6      256.2   29.3  -19.0  145.6   -5.3   115.1
 10 JAN 22  22:02:00:00     430    2.1      26   -1.5      256.3   29.2  -19.0  145.6   -5.3   114.6
 10 JAN 22  22:03:00:00     393    2.0      27   -0.2      256.3   29.1  -19.0  145.6   -5.3   114.0
 10 JAN 22  22:04:00:00     411    1.7      27    0.6      256.3   28.9  -19.0  145.6   -5.3   113.5
 10 JAN 22  22:05:00:00     436    2.0      22   -0.4      256.3   28.8  -19.0  145.6   -5.3   112.9
 10 JAN 22  22:06:00:00     445    1.7      25   -1.2      256.3   28.6  -19.1  145.6   -5.3   112.4
 10 JAN 22  22:07:00:00     451    1.7      25   -1.5      256.3   28.5  -19.1  145.6   -5.3   111.8
 10 JAN 22  22:08:00:00     445    1.2      28   -0.9      256.3   28.3  -19.1  145.6   -5.3   111.3
 10 JAN 22  22:09:00:00     441    1.3      27   -0.9      256.3   28.2  -19.1  145.6   -5.3   110.7
 10 JAN 22  22:10:00:00     429    1.5      22   -0.3      256.4   28.0  -19.1  145.6   -5.3   110.2
 10 JAN 22  22:11:00:00     412    1.8      23   -3.1      256.4   27.9  -19.1  145.6   -5.3   109.6
 10 JAN 22  22:12:00:00     381    3.2      24   -6.6      256.4   27.7  -19.1  145.6   -5.3   109.1
 10 JAN 22  22:13:00:00     374    4.3      22   -6.9      256.4   27.6  -19.1  145.6   -5.3   108.5
 10 JAN 22  22:14:00:00     365    6.3      21   -6.1      256.4   27.5  -19.1  145.6   -5.3   108.0
 10 JAN 22  22:15:00:00     367    7.6      22   -6.0      256.4   27.3  -19.1  145.6   -5.3   107.4
 10 JAN 22  22:16:00:00     363    9.3      21   -7.9      256.4   27.2  -19.1  145.6   -5.3   106.9
 10 JAN 22  22:17:00:00     359    8.2      21   -7.8      256.5   27.0  -19.1  145.6   -5.3   106.3
 10 JAN 22  22:18:00:00     379    3.9      27   -8.6      256.5   26.9  -19.1  145.6   -5.3   105.8
 10 JAN 22  22:19:00:00     376    8.0      25   -9.1      256.5   26.7  -19.1  145.6   -5.3   105.2
 10 JAN 22  22:20:00:00     361    3.9      22   -1.8      256.5   26.6  -19.2  145.6   -5.3   104.7
 10 JAN 22  22:21:00:00     359    5.2      22   -3.5      256.5   26.4  -19.2  145.6   -5.3   104.1
 10 JAN 22  22:22:00:00     355    9.1      21   -7.7      256.5   26.3  -19.2  145.6   -5.3   103.6
 10 JAN 22  22:23:00:00     358    9.6      21   -8.1      256.5   26.1  -19.2  145.6   -5.3   103.0
 10 JAN 23  23:00:00:00     354    5.4      20   -4.8      256.5   26.0  -19.2  145.6   -5.3   102.5
 10 JAN 23  23:01:00:00     350    4.6      18   -1.4      256.5   25.9  -19.2  145.6   -5.3   101.9
 10 JAN 23  23:02:00:00     349    4.3      15   -0.4      256.6   25.7  -19.2  145.6   -5.3   101.4
 10 JAN 23  23:03:00:00     348    5.5      15   -1.5      256.6   25.6  -19.2  145.6   -5.4   100.8
 10 JAN 23  23:04:00:00     348    6.8      17   -3.3      256.6   25.4  -19.2  145.6   -5.4   100.3
 10 JAN 23  23:05:00:00     347    7.3      15   -3.4      256.6   25.3  -19.2  145.6   -5.4    99.7
 10 JAN 23  23:06:00:00     347    7.1      14   -2.5      256.6   25.1  -19.2  145.6   -5.4    99.2
 10 JAN 23  23:07:00:00     347    5.3      14   -1.6      256.6   25.0  -19.2  145.6   -5.4    98.6
 10 JAN 23  23:08:00:00     346    5.5      12   -1.8      256.6   24.8  -19.2  145.6   -5.4    98.1
 10 JAN 23  23:09:00:00     346    5.3      12   -1.7      256.6   24.7  -19.2  145.6   -5.4    97.5
 10 JAN 23  23:10:00:00     345    4.4      10   -1.0      256.6   24.5  -19.2  145.6   -5.4    97.0
 10 JAN 23  23:11:00:00     346    5.4      10   -0.7      256.7   24.4  -19.2  145.6   -5.4    96.4
 10 JAN 23  23:12:00:00     346    4.9      12    0.7      256.7   24.2  -19.3  145.6   -5.4    95.9
 10 JAN 23  23:13:00:00     345    4.9       9    0.6      256.7   24.1  -19.3  145.6   -5.4    95.3
 10 JAN 23  23:14:00:00     345    4.3       9    0.8      256.7   23.9  -19.3  145.6   -5.4    94.8
 10 JAN 23  23:15:00:00     345    4.1      10    1.4      256.7   23.8  -19.3  145.6   -5.4    94.2
 10 JAN 23  23:16:00:00     345    3.9      12    1.9      256.7   23.6  -19.3  145.6   -5.4    93.7
 10 JAN 23  23:17:00:00     342    1.6      20   -0.9      256.7   23.5  -19.3  145.6   -5.4    93.1
 10 JAN 23  23:18:00:00     340    2.4      18   -2.6      256.7   23.3  -19.3  145.6   -5.4    92.6
 10 JAN 23  23:19:00:00     342    3.2      16   -2.6      256.7   23.2  -19.3  145.6   -5.4    92.0
 10 JAN 23  23:20:00:00     337    1.9      19   -2.9      256.8   23.0  -19.3  145.6   -5.4    91.5
 10 JAN 23  23:21:00:00     340    1.7      19   -6.0      256.8   22.9  -19.3  145.6   -5.4    90.9
 10 JAN 23  23:22:00:00     344    1.8      18   -5.1      256.8   22.7  -19.3  145.6   -5.4    90.4
 10 JAN 23  23:23:00:00     345    3.9      10   -1.9      256.8   22.6  -19.3  145.6   -5.4    89.8
 10 JAN 24  24:00:00:00     345    5.0       8   -2.5      256.8   22.5  -19.3  145.6   -5.4    89.3
 10 JAN 24  24:01:00:00     346    3.5      11   -2.5      256.8   22.3  -19.3  145.6   -5.4    88.7
 10 JAN 24  24:02:00:00     349    4.0      16   -0.9      256.8   22.2  -19.3  145.6   -5.4    88.2
 10 JAN 24  24:03:00:00     348    5.0      14    0.2      256.8   22.0  -19.3  145.6   -5.4    87.6
 10 JAN 24  24:04:00:00     351    5.3      17   -0.5      256.8   21.9  -19.3  145.6   -5.4    87.1
 10 JAN 24  24:05:00:00     352    5.5      19   -1.7      256.8   21.7  -19.3  145.6   -5.4    86.5
 10 JAN 24  24:06:00:00     349    4.8      18   -2.3      256.8   21.6  -19.4  145.6   -5.5    86.0
 10 JAN 24  24:07:00:00     348    5.4      16   -3.4      256.9   21.4  -19.4  145.6   -5.5    85.4
 10 JAN 24  24:08:00:00     347    5.8      15   -3.7      256.9   21.3  -19.4  145.6   -5.5    84.9
 10 JAN 24  24:09:00:00     347    6.5      14   -4.5      256.9   21.1  -19.4  145.6   -5.5    84.3
 10 JAN 24  24:10:00:00     347    4.9      15   -3.8      256.9   21.0  -19.4  145.6   -5.5    83.8
 10 JAN 24  24:11:00:00     354    4.2      20   -2.7      256.9   20.8  -19.4  145.6   -5.5    83.2
 10 JAN 24  24:12:00:00     351    4.3      20   -2.2      256.9   20.7  -19.4  145.6   -5.5    82.7
 10 JAN 24  24:13:00:00     349    3.6      19   -0.9      256.9   20.5  -19.4  145.6   -5.5    82.1
 10 JAN 24  24:14:00:00     350    4.4      20   -2.3      256.9   20.4  -19.4  145.6   -5.5    81.6
 10 JAN 24  24:15:00:00     348    3.7      19   -2.0      256.9   20.2  -19.4  145.6   -5.5    81.0
 10 JAN 24  24:16:00:00     348    3.3      17   -1.5      256.9   20.1  -19.4  145.6   -5.5    80.5
 10 JAN 24  24:17:00:00     347    2.9      15   -1.9      256.9   19.9  -19.4  145.6   -5.5    79.9
 10 JAN 24  24:18:00:00     348    3.7      15   -3.1      256.9   19.8  -19.4  145.6   -5.5    79.4
 10 JAN 24  24:19:00:00     346    2.6      18   -2.2      257.0   19.6  -19.4  145.6   -5.5    78.8
 10 JAN 24  24:20:00:00     347    2.8      17   -1.0      257.0   19.4  -19.4  145.6   -5.5    78.3
 10 JAN 24  24:21:00:00     347    3.0      17   -2.5      257.0   19.3  -19.4  145.6   -5.5    77.7
 10 JAN 24  24:22:00:00     350    2.8      19   -0.6      257.0   19.1  -19.4  145.6   -5.5    77.2
 10 JAN 24  24:23:00:00     350    2.4      19   -0.6      257.0   19.0  -19.4  145.6   -5.5    76.6
 10 JAN 25  25:00:00:00     362    3.1      20    1.0      257.0   18.8  -19.5  145.6   -5.5    76.1
 10 JAN 25  25:01:00:00     395    1.9      23    1.5      257.0   18.7  -19.5  145.6   -5.5    75.5
 10 JAN 25  25:02:00:00     352    3.5      19    0.5      257.0   18.5  -19.5  145.6   -5.5    75.0
 10 JAN 25  25:03:00:00     352    3.1      20   -0.6      257.0   18.4  -19.5  145.6   -5.5    74.4
 10 JAN 25  25:04:00:00     352    2.8      18   -0.9      257.0   18.2  -19.5  145.6   -5.5    73.9
 10 JAN 25  25:05:00:00     350    4.4      18   -2.5      257.0   18.1  -19.5  145.6   -5.5    73.3
 10 JAN 25  25:06:00:00     347    3.4      17   -1.8      257.0   17.9  -19.5  145.6   -5.5    72.8
 10 JAN 25  25:07:00:00     348    3.2      19   -0.4      257.0   17.8  -19.5  145.6   -5.5    72.2
 10 JAN 25  25:08:00:00     347    3.0      19    1.2      257.0   17.6  -19.5  145.6   -5.5    71.7
 10 JAN 25  25:09:00:00     346    3.1      18   -0.6      257.1   17.5  -19.5  145.6   -5.5    71.1
 10 JAN 25  25:10:00:00     351    3.7      18   -0.9      257.1   17.3  -19.5  145.6   -5.6    70.6
 10 JAN 25  25:11:00:00     337    2.2      20    0.6      257.1   17.2  -19.5  145.6   -5.6    70.0
 10 JAN 25  25:12:00:00     335    2.0      21    1.4      257.1   17.0  -19.5  145.6   -5.6    69.5
 10 JAN 25  25:13:00:00     336    4.1      19    4.1      257.1   16.9  -19.5  145.6   -5.6    68.9
 10 JAN 25  25:14:00:00     348    7.0      20    6.5      257.1   16.7  -19.5  145.6   -5.6    68.4
 10 JAN 25  25:15:00:00     356   10.8      20    6.7      257.1   16.6  -19.5  145.6   -5.6    67.8
 10 JAN 25  25:16:00:00     358    7.6      20    4.2      257.1   16.4  -19.5  145.6   -5.6    67.3
 10 JAN 25  25:17:00:00     364    2.5      21    3.3      257.1   16.3  -19.5  145.6   -5.6    66.7
 10 JAN 25  25:18:00:00     355    2.8      20    2.7      257.1   16.1  -19.5  145.6   -5.6    66.2
 10 JAN 25  25:19:00:00     354    2.8      20    1.9      257.1   15.9  -19.5  145.6   -5.6    65.6
 10 JAN 25  25:20:00:00     355    2.7      19   -0.2      257.1   15.8  -19.5  145.6   -5.6    65.1
 10 JAN 25  25:21:00:00     355    3.4      20   -0.2      257.1   15.6  -19.6  145.6   -5.6    64.5
 10 JAN 25  25:22:00:00     354    3.4      20    0.4      257.1   15.5  -19.6  145.6   -5.6    64.0
 10 JAN 25  25:23:00:00     350    3.3      19   -0.3      257.1   15.3  -19.6  145.6   -5.6    63.4
 10 JAN 26  26:00:00:00     348    3.0      18    0.2      257.1   15.2  -19.6  145.6   -5.6    62.9
 10 JAN 26  26:01:00:00     352    4.7      18   -4.3      257.1   15.0  -19.6  145.6   -5.6    62.3
 10 JAN 26  26:02:00:00     351    4.7      18   -3.5      257.2   14.9  -19.6  145.6   -5.6    61.8
 10 JAN 26  26:03:00:00     346    3.3      13   -0.7      257.2   14.7  -19.6  145.6   -5.6    61.3
 10 JAN 26  26:04:00:00     346    3.0      13   -0.7      257.2   14.6  -19.6  145.6   -5.6    60.7
 10 JAN 26  26:05:00:00     345    2.9      13   -1.8      257.2   14.4  -19.6  145.6   -5.6    60.2
 10 JAN 26  26:06:00:00     342    2.2      18   -1.6      257.2   14.3  -19.6  145.7   -5.6    59.6
 10 JAN 26  26:07:00:00     346    2.7      15   -0.2      257.2   14.1  -19.6  145.7   -5.6    59.1
 10 JAN 26  26:08:00:00     344    2.4      19    1.0      257.2   13.9  -19.6  145.7   -5.6    58.5
 10 JAN 26  26:09:00:00     345    2.4      16    0.7      257.2   13.8  -19.6  145.7   -5.6    58.0
 10 JAN 26  26:10:00:00     349    3.3      16   -0.2      257.2   13.6  -19.6  145.7   -5.6    57.4
 10 JAN 26  26:11:00:00     353    3.5      19    0.2      257.2   13.5  -19.6  145.7   -5.6    56.9
 10 JAN 26  26:12:00:00     353    3.3      19    0.2      257.2   13.3  -19.6  145.7   -5.6    56.3
 10 JAN 26  26:13:00:00     352    3.5      19    1.1      257.2   13.2  -19.6  145.7   -5.6    55.8
 10 JAN 26  26:14:00:00     350    3.4      17    1.9      257.2   13.0  -19.6  145.7   -5.6    55.2
 10 JAN 26  26:15:00:00     350    3.5      17    1.1      257.2   12.9  -19.6  145.7   -5.7    54.7
 10 JAN 26  26:16:00:00     350    3.8      17    2.6      257.2   12.7  -19.6  145.7   -5.7    54.1
 10 JAN 26  26:17:00:00     350    2.9      17    1.0      257.2   12.6  -19.6  145.7   -5.7    53.6
 10 JAN 26  26:18:00:00     349    3.8      16    0.0      257.2   12.4  -19.6  145.7   -5.7    53.0
 10 JAN 26  26:19:00:00     347    3.9      14    0.9      257.2   12.2  -19.6  145.7   -5.7    52.5
 10 JAN 26  26:20:00:00     347    3.9      15    1.3      257.2   12.1  -19.6  145.7   -5.7    51.9
 10 JAN 26  26:21:00:00     346    3.3      13    1.2      257.2   11.9  -19.6  145.7   -5.7    51.4
 10 JAN 26  26:22:00:00     347    3.7      14    1.2      257.2   11.8  -19.7  145.7   -5.7    50.8
 10 JAN 26  26:23:00:00     347    4.0      12    0.6      257.3   11.6  -19.7  145.7   -5.7    50.3
 10 JAN 27  27:00:00:00     351    3.1      16    0.4      257.3   11.5  -19.7  145.7   -5.7    49.7
 10 JAN 27  27:01:00:00     346    3.3      12    1.7      257.3   11.3  -19.7  145.7   -5.7    49.2
 10 JAN 27  27:02:00:00     346    4.0      11    3.2      257.3   11.2  -19.7  145.7   -5.7    48.6
 10 JAN 27  27:03:00:00     345    3.2      13    1.0      257.3   11.0  -19.7  145.7   -5.7    48.1
 10 JAN 27  27:04:00:00     344    3.7      15    2.1      257.3   10.8  -19.7  145.7   -5.7    47.5
 10 JAN 27  27:05:00:00     345    3.6      14    1.7      257.3   10.7  -19.7  145.7   -5.7    47.0
 10 JAN 27  27:06:00:00     345    3.6      15    2.3      257.3   10.5  -19.7  145.7   -5.7    46.4
 10 JAN 27  27:07:00:00     344    3.6      16    3.0      257.3   10.4  -19.7  145.7   -5.7    45.9
 10 JAN 27  27:08:00:00     345    4.0      14    2.5      257.3   10.2  -19.7  145.7   -5.7    45.3
 10 JAN 27  27:09:00:00     345    3.5      13    2.0      257.3   10.1  -19.7  145.7   -5.7    44.8
 10 JAN 27  27:10:00:00     345    3.4      14    1.3      257.3    9.9  -19.7  145.7   -5.7    44.2
 10 JAN 27  27:11:00:00     344    3.9      16    1.7      257.3    9.8  -19.7  145.7   -5.7    43.7
 10 JAN 27  27:12:00:00     346    5.7      12    2.7      257.3    9.6  -19.7  145.7   -5.7    43.1
 10 JAN 27  27:13:00:00     345    4.8      12    2.5      257.3    9.4  -19.7  145.7   -5.7    42.6
 10 JAN 27  27:14:00:00     345    5.8      11    3.8      257.3    9.3  -19.7  145.7   -5.7    42.0
 10 JAN 27  27:15:00:00     340    5.4      17    4.3      257.3    9.1  -19.7  145.7   -5.7    41.5
 10 JAN 27  27:16:00:00     336    4.0      19    3.4      257.3    9.0  -19.7  145.7   -5.7    40.9
 10 JAN 27  27:17:00:00     332    2.5      19    0.5      257.3    8.8  -19.7  145.7   -5.7    40.4
 10 JAN 27  27:18:00:00     332    2.5      19   -0.4      257.3    8.7  -19.7  145.7   -5.7    39.8
 10 JAN 27  27:19:00:00     336    3.9      19   -0.2      257.3    8.5  -19.7  145.7   -5.7    39.3
 10 JAN 27  27:20:00:00     326    2.7      19    1.8      257.3    8.3  -19.7  145.7   -5.8    38.7
 10 JAN 27  27:21:00:00     326    2.1      19   -0.3      257.3    8.2  -19.7  145.7   -5.8    38.2
 10 JAN 27  27:22:00:00     327    3.0      19   -0.9      257.3    8.0  -19.7  145.7   -5.8    37.6
 10 JAN 27  27:23:00:00     311    2.8      19   -0.3      257.3    7.9  -19.7  145.7   -5.8    37.1
 10 JAN 28  28:00:00:00     321    2.9      19   -2.1      257.3    7.7  -19.7  145.7   -5.8    36.5
 10 JAN 28  28:01:00:00     335    2.6      19   -2.3      257.3    7.6  -19.7  145.7   -5.8    36.0
 10 JAN 28  28:02:00:00     338    2.3      19   -3.1      257.3    7.4  -19.7  145.7   -5.8    35.4
 10 JAN 28  28:03:00:00     342    1.6      19   -0.9      257.3    7.2  -19.7  145.7   -5.8    34.9
 10 JAN 28  28:04:00:00     341    2.3      19   -0.4      257.4    7.1  -19.8  145.7   -5.8    34.3
 10 JAN 28  28:05:00:00     325    3.1      19   -2.0      257.4    6.9  -19.8  145.7   -5.8    33.8
 10 JAN 28  28:06:00:00     322    2.9      19   -1.4      257.4    6.8  -19.8  145.7   -5.8    33.2
 10 JAN 28  28:07:00:00     336    2.2      19   -1.1      257.4    6.6  -19.8  145.7   -5.8    32.7
 10 JAN 28  28:08:00:00     340    2.1      19   -1.6      257.4    6.5  -19.8  145.7   -5.8    32.1
 10 JAN 28  28:09:00:00     345    3.7      14    0.0      257.4    6.3  -19.8  145.7   -5.8    31.6
 10 JAN 28  28:10:00:00     346    5.0      14   -1.0      257.4    6.1  -19.8  145.7   -5.8    31.0
 10 JAN 28  28:11:00:00     346    4.9      19   -1.7      257.4    6.0  -19.8  145.7   -5.8    30.5
 10 JAN 28  28:12:00:00     346    4.0      14   -0.4      257.4    5.8  -19.8  145.7   -5.8    29.9
 10 JAN 28  28:13:00:00     358    3.8      21   -0.1      257.4    5.7  -19.8  145.7   -5.8    29.4
 10 JAN 28  28:14:00:00     373    2.7      24   -0.2      257.4    5.5  -19.8  145.7   -5.8    28.8
 10 JAN 28  28:15:00:00     375    2.9      24   -0.3      257.4    5.4  -19.8  145.7   -5.8    28.3
 10 JAN 28  28:16:00:00     365    4.4      22    0.8      257.4    5.2  -19.8  145.7   -5.8    27.7
 10 JAN 28  28:17:00:00     371    3.5      23    0.6      257.4    5.0  -19.8  145.7   -5.8    27.2
 10 JAN 28  28:18:00:00     360    4.4      22    0.8      257.4    4.9  -19.8  145.7   -5.8    26.6
 10 JAN 28  28:19:00:00     353    4.3      21    0.3      257.4    4.7  -19.8  145.7   -5.8    26.1
 10 JAN 28  28:20:00:00     351    3.6      20   -0.3      257.4    4.6  -19.8  145.7   -5.8    25.5
 10 JAN 28  28:21:00:00     351    3.4      20   -0.3      257.4    4.4  -19.8  145.7   -5.8    25.0
 10 JAN 28  28:22:00:00     352    3.7      20    0.1      257.4    4.3  -19.8  145.7   -5.8    24.4
 10 JAN 28  28:23:00:00     354    4.5      21    1.3      257.4    4.1  -19.8  145.7   -5.8    23.9
 10 JAN 29  29:00:00:00      -1   -1.0      -1   99.0      257.4    3.9  -19.8  145.7   -5.8    23.3
 10 JAN 29  29:01:00:00      -1   -1.0      -1   99.0      257.4    3.8  -19.8  145.7   -5.8    22.8
 10 JAN 29  29:02:00:00     347    3.1      20    0.6      257.4    3.6  -19.8  145.7   -5.9    22.2
 10 JAN 29  29:03:00:00     347    3.6      20    1.4      257.4    3.5  -19.8  145.7   -5.9    21.7
 10 JAN 29  29:04:00:00     344    3.2      21    0.8      257.4    3.3  -19.8  145.7   -5.9    21.1
 10 JAN 29  29:05:00:00     348    4.3      19    3.0      257.4    3.2  -19.8  145.7   -5.9    20.6
 10 JAN 29  29:06:00:00     344    3.2      20    1.7      257.4    3.0  -19.8  145.7   -5.9    20.0
 10 JAN 29  29:07:00:00     337    2.5      21   -0.5      257.4    2.8  -19.8  145.7   -5.9    19.5
 10 JAN 29  29:08:00:00     335    2.6      21   -2.1      257.4    2.7  -19.8  145.7   -5.9    18.9
 10 JAN 29  29:09:00:00      -1   -1.0      -1   99.0      257.4    2.5  -19.8  145.7   -5.9    18.4
 10 JAN 29  29:10:00:00      -1   -1.0      -1   99.0      257.4    2.4  -19.8  145.7   -5.9    17.8
 10 JAN 29  29:11:00:00      -1   -1.0      -1   99.0      257.4    2.2  -19.8  145.7   -5.9    17.3
 10 JAN 29  29:12:00:00      -1   -1.0      -1   99.0      257.4    2.0  -19.8  145.7   -5.9    16.7
 10 JAN 29  29:13:00:00      -1   -1.0      -1   99.0      257.4    1.9  -19.8  145.7   -5.9    16.2
 10 JAN 29  29:14:00:00      -1   -1.0      -1   99.0      257.4    1.7  -19.8  145.7   -5.9    15.6
 10 JAN 29  29:15:00:00      -1   -1.0      -1   99.0      257.4    1.6  -19.8  145.7   -5.9    15.1
 10 JAN 29  29:16:00:00     321    1.7      20    0.8      257.4    1.4  -19.8  145.7   -5.9    14.5
 10 JAN 29  29:17:00:00     320    1.7      20    0.7      257.4    1.3  -19.8  145.7   -5.9    14.0
 10 JAN 29  29:18:00:00     328    1.7      21    0.8      257.4    1.1  -19.8  145.7   -5.9    13.4
 10 JAN 29  29:19:00:00     327    1.9      21    0.9      257.4    0.9  -19.8  145.7   -5.9    12.9
 10 JAN 29  29:20:00:00     331    2.1      20    0.6      257.4    0.8  -19.8  145.7   -5.9    12.3
 10 JAN 29  29:21:00:00     341    2.6      19    0.5      257.4    0.6  -19.8  145.7   -5.9    11.8
 10 JAN 29  29:22:00:00     334    2.8      20   -1.1      257.4    0.5  -19.8  145.7   -5.9    11.2
 10 JAN 29  29:23:00:00     339    2.7      18   -1.1      257.4    0.3  -19.8  145.7   -5.9    10.7
 10 JAN 30  30:00:00:00     341    3.6      19   -0.8      257.4    0.1  -19.8  145.7   -5.9    10.2
 10 JAN 30  30:01:00:00     348    7.8      20   -2.8      257.4    0.0  -19.8  145.7   -5.9     9.6
 10 JAN 30  30:02:00:00     346    6.3      20   -0.2      257.4   -0.2  -19.8  145.7   -5.9     9.1
 10 JAN 30  30:03:00:00     345    5.3      22    0.9      257.4   -0.3  -19.8  145.7   -5.9     8.5
 10 JAN 30  30:04:00:00     337    4.3      20    1.6      257.4   -0.5  -19.8  145.7   -5.9     8.0
 10 JAN 30  30:05:00:00     336    7.7      19    3.0      257.4   -0.6  -19.8  145.7   -5.9     7.4
 10 JAN 30  30:06:00:00     337    9.9      19    4.9      257.4   -0.8  -19.8  145.7   -5.9     6.9
 10 JAN 30  30:07:00:00     334    8.2      19    4.7      257.4   -1.0  -19.8  145.7   -5.9     6.3
 10 JAN 30  30:08:00:00     334    7.9      19    3.1      257.4   -1.1  -19.8  145.7   -5.9     5.8
 10 JAN 30  30:09:00:00     334    6.0      20   -0.2      257.4   -1.3  -19.8  145.7   -5.9     5.2
 10 JAN 30  30:10:00:00      -1   -1.0      -1   99.0      257.4   -1.4  -19.9  145.7   -6.0     4.7
 10 JAN 30  30:11:00:00      -1   -1.0      -1   99.0      257.4   -1.6  -19.9  145.7   -6.0     4.1
 10 JAN 30  30:12:00:00     356    3.8      21    1.6      257.4   -1.8  -19.9  145.7   -6.0     3.6
 10 JAN 30  30:13:00:00     353    3.4      20    1.6      257.4   -1.9  -19.9  145.7   -6.0     3.0
 10 JAN 30  30:14:00:00     360    3.7      22    3.7      257.4   -2.1  -19.9  145.7   -6.0     2.5
 10 JAN 30  30:15:00:00     364    2.8      24    0.6      257.4   -2.2  -19.9  145.7   -6.0     1.9
 10 JAN 30  30:16:00:00     417    2.6      30    0.0      257.4   -2.4  -19.9  145.7   -6.0     1.4
 10 JAN 30  30:17:00:00     437    1.7      25    0.6      257.4   -2.5  -19.9  145.7   -6.0     0.8
 10 JAN 30  30:18:00:00     429    2.2      25    1.3      257.4   -2.7  -19.9  145.7   -6.0     0.3
 10 JAN 30  30:19:00:00     428    2.7      26    2.6      257.4   -2.9  -19.9  145.7   -6.0   359.7